Avon, Iowa
Current Conditions -  °F | °C
As of 7:54 AM on Sunday 25 Jan 2015 (Local Time) from KDSM Reporting Station
Light Snow Light Snow  
Wind Chill: 25°   Ceiling: 600
Heat Index: 35°   Visibility: 1mi
Dew Point: 32°   Wind: 16mph
Humidity: 89%   Direction: 10°N
Pressure: 29.7"   Gusts: NA
Location:  41.4707°N, 93.4797°W
Report Text: KDSM 251354Z 01014KT 1SM R31/P6000FT -SN BR OVC006 02/00 A2970 RMK AO2 SFC VIS 3 RAE46SNB46 SLP062 P0002 T00170000
Loading
Personal Weather Stations






























Interactive Weather Map New forecast layout! Learn more

10-Day Weather Forecast

Advertisements
Track Severe Weather on mobile